Blue Oak Ranch Reserve, California Weather observations

Data are for 10 minute period ending at time listed.
 Day   Time   Solar   Ave.   Ave.  Ave.  Vector  Max.   Baro.   Total    
  of    of     Rad.   Air    Rel.  Wind   Wind   Wind  Press.  Precip.   
Year   Day            Temp.  Hum.  Speed  Dir.   Gust                    
2015   (PST)  Kw/m2    F      %     mph   deg.    mph    mb.     in.     
-------------------------------------------------------------------------
  30    8:20   0.15   47.0    74    0.6   263     2.0   948.2    0.00 
  30    8:30   0.18   49.9    68    1.7   273     2.6   948.3    0.00 
  30    8:40   0.20   50.7    69    0.9    53     2.9   948.2    0.00 
  30    8:50   0.23   52.8    65    0.9    87     2.7   948.2    0.00 
  30    9:00   0.26   56.4    57    1.2   243     2.9   948.0    0.00 
  30    9:10   0.29   57.8    56    1.3   264     3.4   947.9    0.00 
  30    9:20   0.32   58.7    54    1.7   208     3.7   947.9    0.00 
  30    9:30   0.34   58.4    54    1.4   132     3.1   947.8    0.00 
  30    9:40   0.37   59.8    51    1.8   265     5.3   947.8    0.00 
  30    9:50   0.39   59.8    52    4.2   287     6.4   947.9    0.00 
  30   10:00   0.41   58.8    54    4.9   288     7.0   947.9    0.00 
  30   10:10   0.43   59.1    53    3.9   292     6.1   948.0    0.00 
  30   10:20   0.46   60.6    51    2.7   256     5.0   947.9    0.00 
  30   10:30   0.48   61.9    50    4.9   229     7.5   948.0    0.00 
  30   10:40   0.49   62.2    50    3.6   191     8.0   947.9    0.00 
  30   10:50   0.51   61.4    53    4.3   169     7.7   947.9    0.00 
  30   11:00   0.52   62.7    51    3.6   226     6.3   947.9    0.00 
  30   11:10   0.54   62.7    50    5.7   263    14.4   947.7    0.00 
  30   11:20   0.55   63.9    42    5.3   349    11.7   947.6    0.00 
  30   11:30   0.56   65.4    40    3.9     7     8.5   947.5    0.00 
  30   11:40   0.57   65.7    40    5.8   298    11.0   947.4    0.00 
  30   11:50   0.57   64.1    43    9.8   292    14.5   947.2    0.00 
  30   12:00   0.58   63.1    43   11.5   292    14.7   947.0    0.00 
  30   12:10   0.58   63.3    43   10.2   296    13.9   946.8    0.00 
  30   12:20   0.58   62.9    44   11.2   291    14.5   946.7    0.00 
  30   12:30   0.58   62.9    44   11.0   291    15.9   946.5    0.00 
  30   12:40   0.58   63.4    47    8.6   275    12.6   946.4    0.00 
  30   12:50   0.58   63.0    49    6.7   272    11.0   946.2    0.00 
  30   13:00   0.57   62.5    54    7.4   259    11.6   946.2    0.00 
  30   13:10   0.54   61.1    60    5.4   238     9.8   946.0    0.00 
  30   13:20   0.55   60.8    61    4.9   238     8.8   945.8    0.00 
  30   13:30   0.55   61.2    57    6.1   250    13.3   945.7    0.00 
  30   13:40   0.53   62.3    51    7.3   266    13.3   945.6    0.00 
  30   13:50   0.52   61.7    56    7.5   254    13.2   945.5    0.00 
  30   14:00   0.50   60.0    64    6.7   244    11.9   945.5    0.00 
  30   14:10   0.48   59.3    64    7.7   230    13.2   945.6    0.00 
  30   14:20   0.47   59.5    62    8.5   224    14.2   945.5    0.00 
  30   14:30   0.45   59.5    63    6.4   218    12.6   945.4    0.00 
  30   14:40   0.43   60.1    62    5.6   228    10.2   945.2    0.00 
  30   14:50   0.41   61.3    54    7.0   266    12.1   945.2    0.00 
  30   15:00   0.39   62.6    50    6.5   253    11.5   945.2    0.00 
  30   15:10   0.37   62.5    49    6.8   259    11.6   945.2    0.00 
  30   15:20   0.34   62.5    51    6.7   264    11.2   945.2    0.00 
  30   15:30   0.32   61.6    52    7.1   277    12.0   945.2    0.00 
  30   15:40   0.29   60.8    52    6.8   273    12.7   945.1    0.00 
  30   15:50   0.26   61.0    52    5.8   273     9.6   945.0    0.00 
  30   16:00   0.23   60.6    53    5.9   270     9.7   944.9    0.00 
  30   16:10   0.21   60.1    53    6.2   276     9.6   944.9    0.00 
  30   16:20   0.18   59.5    55    6.9   282     9.6   944.8    0.00 
  30   16:30   0.15   58.7    56    7.0   286     9.9   944.8    0.00 
  30   16:40   0.12   58.6    56    6.6   283     9.3   944.8    0.00 
  30   16:50   0.09   58.4    56    5.1   274     8.6   944.7    0.00 
  30   17:00   0.07   57.8    58    5.5   291     7.2   944.7    0.00 
  30   17:10   0.04   56.9    60    4.8   302     6.9   944.7    0.00 
  30   17:20   0.01   56.2    61    4.8   305     6.4   944.7    0.00 
  30   17:30   0.01   54.6    64    4.2   297     5.7   944.8    0.00 
  30   17:40   0.01   53.6    65    3.5   310     5.3   944.9    0.00 
  30   17:50   0.00   53.5    65    2.4   328     5.6   945.0    0.00 
  30   18:00   0.00   54.8    62    3.4     4     7.0   945.2    0.00 
  30   18:10   0.00   55.7    60    3.9   353     8.6   945.4    0.00 
  30   18:20   0.00   54.4    63    3.3   322     5.2   945.5    0.00 
  30   18:30   0.00   54.0    64    3.9   323     6.6   945.6    0.00 
  30   18:40   0.00   52.9    67    3.2   320     5.1   945.8    0.00 
  30   18:50   0.00   51.6    70    3.4   315     7.0   946.0    0.00 
  30   19:00   0.00   52.3    68    2.6   315     6.4   946.0    0.00 
  30   19:10   0.00   51.5    70    0.6   318     1.9   946.0    0.00 
  30   19:20   0.00   50.5    72    2.5   311     5.2   946.1    0.00 
  30   19:30   0.00   50.0    72    1.6   321     6.2   946.1    0.00 
  30   19:40   0.00   50.3    70    2.7    19     6.4   946.0    0.00 
  30   19:50   0.00   50.6    68    2.6    34     4.5   946.0    0.00 
  30   20:00   0.00   51.2    68    2.1     5     6.8   945.9    0.00 
  30   20:10   0.00   50.2    71    2.1    36     3.5   945.9    0.00 
  30   20:20   0.00   49.9    71    2.1    41     3.8   945.8    0.00 
  30   20:30   0.00   50.5    69    1.3    12     3.6   945.7    0.00 
  30   20:40   0.00   49.4    70    0.6    27     2.7   945.6    0.00 
  30   20:50   0.00   49.0    69    2.2    11     6.1   945.6    0.00 
  30   21:00   0.00   53.8    52    3.9     3     9.8   945.5    0.00 
  30   21:10   0.00   58.0    42    3.7   348     8.6   945.5    0.00 
  30   21:20   0.00   58.9    39    5.0   358    12.2   945.4    0.00 
  30   21:30   0.00   59.4    37    3.8    19     7.0   945.4    0.00 
  30   21:40   0.00   59.5    36    4.0    10     9.3   945.4    0.00 
  30   21:50   0.00   59.5    36    4.7     4     9.7   945.5    0.00 
  30   22:00   0.00   60.0    35    7.5   346    15.3   945.5    0.00 
  30   22:10   0.00   60.3    34    6.7   356    16.4   945.5    0.00 
  30   22:20   0.00   60.2    35    6.7   344    13.7   945.4    0.00 
  30   22:30   0.00   60.2    35    8.6   351    15.3   945.3    0.00 
  30   22:40   0.00   60.0    34    7.6   353    16.1   945.2    0.00 
  30   22:50   0.00   59.9    34    6.3   357    13.7   945.2    0.00 
  30   23:00   0.00   59.7    34    4.5     3     9.1   945.1    0.00 
  30   23:10   0.00   59.3    35    4.9   344    13.6   945.2    0.00 
  30   23:20   0.00   59.6    34    5.4   344    12.9   945.2    0.00 
  30   23:30   0.00   59.1    35    6.7    33    14.0   945.1    0.00 
  30   23:40   0.00   58.7    35    6.2    31    12.7   945.0    0.00 
  30   23:50   0.00   58.9    35    5.5    32    11.5   945.0    0.00 
  31    0:00   0.00   59.3    34    6.1    30    16.6   945.0    0.00 
  31    0:10   0.00   58.8    36    6.0    36    13.2   944.9    0.00 
  31    0:20   0.00   58.7    35    6.7    35    12.9   944.8    0.00 
  31    0:30   0.00   58.6    35    6.1    38    14.0   944.8    0.00 
  31    0:40   0.00   58.4    35    5.2    35    10.1   944.7    0.00 
  31    0:50   0.00   57.6    36    4.4    34    12.5   944.7    0.00 
  31    1:00   0.00   57.2    37    5.9    39    11.4   944.6    0.00 
  31    1:10   0.00   57.0    37    4.6    21     8.9   944.6    0.00 
  31    1:20   0.00   56.7    37    2.2    24     7.8   944.5    0.00 
  31    1:30   0.00   56.4    37    4.7    34    10.7   944.5    0.00 
  31    1:40   0.00   57.0    36    4.8    26    11.5   944.5    0.00 
  31    1:50   0.00   56.5    36    4.7    32     9.2   944.5    0.00 
  31    2:00   0.00   55.7    36    3.8    69     7.8   944.5    0.00 
  31    2:10   0.00   54.0    39    2.8   251     5.5   944.7    0.00 
  31    2:20   0.00   51.7    42    2.3   310     5.1   944.8    0.00 
  31    2:30   0.00   51.1    41    3.1   354    16.0   944.8    0.00 
  31    2:40   0.00   55.1    34    4.9    10    12.9   944.8    0.00 
  31    2:50   0.00   55.7    33    6.0     5    11.8   944.7    0.00 
  31    3:00   0.00   55.8    33    6.4   324    17.2   944.6    0.00 
  31    3:10   0.00   54.0    36    3.5   270     7.0   944.5    0.00 
  31    3:20   0.00   52.2    38    3.3   268     7.5   944.6    0.00 
  31    3:30   0.00   50.5    44    2.7   288     6.3   944.7    0.00 
  31    3:40   0.00   48.9    45    2.5    11     6.4   944.7    0.00 
  31    3:50   0.00   47.9    47    2.5    25     6.3   944.6    0.00 
  31    4:00   0.00   46.6    49    1.9    59     4.8   944.5    0.00 
  31    4:10   0.00   45.5    50    2.4    62     6.0   944.5    0.00 
  31    4:20   0.00   46.7    47    1.1   138     3.3   944.6    0.00 
  31    4:30   0.00   45.1    50    2.5    65     5.0   944.7    0.00 
  31    4:40   0.00   45.8    49    1.4    36     3.6   944.6    0.00 
  31    4:50   0.00   46.8    47    2.5   239     6.9   944.6    0.00 
  31    5:00   0.00   46.4    48    2.0   166     5.1   944.6    0.00 
  31    5:10   0.00   45.6    49    1.9   101     3.8   944.7    0.00 
  31    5:20   0.00   46.3    48    1.6    49     5.4   944.8    0.00 
  31    5:30   0.00   45.0    50    2.6   111     5.8   944.9    0.00 
  31    5:40   0.00   44.0    52    1.7    56     4.5   944.9    0.00 
  31    5:50   0.00   43.8    54    1.7    79     3.5   945.0    0.00 
  31    6:00   0.00   42.9    56    1.9    46     4.6   945.1    0.00 
  31    6:10   0.00   42.5    56    2.8    68     5.1   945.2    0.00 
  31    6:20   0.00   43.3    54    2.1    49     5.3   945.2    0.00 
  31    6:30   0.00   42.8    56    2.1   282     6.4   945.4    0.00 
  31    6:40   0.00   42.1    57    2.3    57     4.7   945.6    0.00 
  31    6:50   0.00   41.9    57    2.9    26     6.5   945.8    0.00 
  31    7:00   0.00   42.1    54    4.3    66    12.3   945.8    0.00 
  31    7:10   0.01   50.9    34    4.1    41     9.5   945.9    0.00 
  31    7:20   0.01   52.6    31    7.0    31    17.0   946.1    0.00 
  31    7:30   0.01   54.2    29    7.2   355    15.9   946.4    0.00 
  31    7:40   0.01   54.6    28    4.7    55    12.6   946.4    0.00 
  31    7:50   0.03   55.0    27    6.0    51    17.2   946.2    0.00 
  31    8:00   0.09   56.8    25    6.1    51    18.9   946.3    0.00 
  31    8:10   0.13   58.5    23    3.6    73    12.0   946.2    0.00 

Return to Blue Oak Ranch Reserve graphs page.


Western Regional Climate Center,wrcc@dri.edu